Time;durP1;ratioP1;P1;durP2;ratioP2;P2;SDS_P1;SDS_P2;PMS_P1;PMS_P2;Temp;Humidity;BMP_temperature;BMP_pressure;BME280_temperature;BME280_humidity;BME280_pressure;Samples;Min_cycle;Max_cycle;Signal;HPM_P1;HPM_P2
2022/10/31 00:00:01;;;;;;;;;;;23.30;57.60;;;;;;5111934;28;19907;-70
2022/10/31 00:02:27;;;;;;;;;;;23.30;58.00;;;;;;5105142;28;19966;-69
2022/10/31 00:04:54;;;;;;;;;;;23.40;57.50;;;;;;5105860;28;20003;-70
2022/10/31 00:07:20;;;;;;;;;;;23.50;57.90;;;;;;5083344;28;20352;-70
2022/10/31 00:09:47;;;;;;;;;;;23.60;56.40;;;;;;5111781;28;20036;-70
2022/10/31 00:12:13;;;;;;;;;;;23.50;57.00;;;;;;5111636;28;19958;-70
2022/10/31 00:14:40;;;;;;;;;;;23.60;56.90;;;;;;5112105;28;19908;-70
2022/10/31 00:17:07;;;;;;;;;;;23.60;57.90;;;;;;5111840;28;19919;-70
2022/10/31 00:19:33;;;;;;;;;;;23.60;57.50;;;;;;5111963;28;19915;-70
2022/10/31 00:22:00;;;;;;;;;;;23.60;58.60;;;;;;5109498;28;20018;-70
2022/10/31 00:24:26;;;;;;;;;;;23.60;59.10;;;;;;5102051;28;20354;-69
2022/10/31 00:26:53;;;;;;;;;;;23.60;58.00;;;;;;5115629;28;19907;-70
2022/10/31 00:29:19;;;;;;;;;;;23.60;57.50;;;;;;5115345;28;19941;-70
2022/10/31 00:31:46;;;;;;;;;;;23.60;57.70;;;;;;5115548;28;19990;-70
2022/10/31 00:34:13;;;;;;;;;;;23.60;57.50;;;;;;5101654;28;19931;-70
2022/10/31 00:36:39;;;;;;;;;;;23.50;57.90;;;;;;5109780;28;19923;-70
2022/10/31 00:39:06;;;;;;;;;;;23.50;57.90;;;;;;5106563;28;19911;-70
2022/10/31 00:41:32;;;;;;;;;;;23.50;59.10;;;;;;5114785;28;20352;-70
2022/10/31 00:43:59;;;;;;;;;;;23.60;60.50;;;;;;5105405;28;19908;-70
2022/10/31 00:46:26;;;;;;;;;;;23.60;61.10;;;;;;5115087;28;19908;-70
2022/10/31 00:48:52;;;;;;;;;;;23.70;62.90;;;;;;5115235;28;19920;-70
2022/10/31 00:51:19;;;;;;;;;;;23.70;63.70;;;;;;5115053;28;19953;-70
2022/10/31 00:53:45;;;;;;;;;;;23.70;64.40;;;;;;5099835;28;20006;-70
2022/10/31 00:56:12;;;;;;;;;;;23.70;64.30;;;;;;5106896;28;20342;-69
2022/10/31 00:58:38;;;;;;;;;;;23.60;64.80;;;;;;5115292;28;19961;-70
2022/10/31 01:01:05;;;;;;;;;;;23.60;65.60;;;;;;5114841;28;20014;-69
2022/10/31 01:03:32;;;;;;;;;;;23.60;66.10;;;;;;5110826;28;20000;-69
2022/10/31 01:05:59;;;;;;;;;;;23.50;67.00;;;;;;5114617;28;20002;-70
2022/10/31 01:08:26;;;;;;;;;;;23.60;67.00;;;;;;5114424;28;19908;-70
2022/10/31 01:11:18;;;;;;;;;;;23.60;67.80;;;;;;5114444;28;19966;-70
2022/10/31 01:13:45;;;;;;;;;;;23.60;67.50;;;;;;5095826;28;19908;-70
2022/10/31 01:16:13;;;;;;;;;;;23.60;67.80;;;;;;5088255;28;20264;-70
2022/10/31 01:18:39;;;;;;;;;;;23.70;66.50;;;;;;5068740;28;20338;-70
2022/10/31 01:21:06;;;;;;;;;;;23.90;66.30;;;;;;5106102;28;19916;-70
2022/10/31 01:23:33;;;;;;;;;;;24.10;64.20;;;;;;5088233;28;19917;-71
2022/10/31 01:26:00;;;;;;;;;;;24.30;63.70;;;;;;5085662;28;20011;-70
2022/10/31 01:28:27;;;;;;;;;;;24.50;60.20;;;;;;5093179;28;19915;-70
2022/10/31 01:30:53;;;;;;;;;;;24.70;59.60;;;;;;5093875;28;19912;-70
2022/10/31 01:33:20;;;;;;;;;;;24.80;59.30;;;;;;5092606;28;19912;-70
2022/10/31 01:35:47;;;;;;;;;;;24.80;59.30;;;;;;5093778;28;19931;-70
2022/10/31 01:38:13;;;;;;;;;;;24.80;59.30;;;;;;5098154;28;19991;-70
2022/10/31 01:40:40;;;;;;;;;;;24.80;59.20;;;;;;5114242;28;19908;-70
2022/10/31 01:43:09;;;;;;;;;;;24.80;58.60;;;;;;5111136;28;19908;-70
2022/10/31 01:45:36;;;;;;;;;;;24.70;58.70;;;;;;5075951;28;19923;-70
2022/10/31 01:48:02;;;;;;;;;;;24.70;58.70;;;;;;5095353;28;19908;-70
2022/10/31 01:50:31;;;;;;;;;;;24.70;59.20;;;;;;5113839;28;19914;-70
2022/10/31 01:52:57;;;;;;;;;;;24.70;59.20;;;;;;5095482;28;20000;-70
2022/10/31 01:55:28;;;;;;;;;;;24.70;59.30;;;;;;5099300;28;19914;-70
2022/10/31 01:57:55;;;;;;;;;;;24.70;59.60;;;;;;5086488;28;19916;-70
2022/10/31 02:00:22;;;;;;;;;;;24.70;60.40;;;;;;5093932;28;19908;-70
2022/10/31 02:02:49;;;;;;;;;;;24.80;60.80;;;;;;5095998;28;19908;-69
2022/10/31 02:05:20;;;;;;;;;;;24.80;60.70;;;;;;5104476;28;19961;-70
2022/10/31 02:07:49;;;;;;;;;;;24.80;60.60;;;;;;5113409;28;19912;-69
2022/10/31 02:10:16;;;;;;;;;;;24.90;60.20;;;;;;5095283;28;19908;-70
2022/10/31 02:12:42;;;;;;;;;;;25.10;59.70;;;;;;5114130;28;19938;-69
2022/10/31 02:15:09;;;;;;;;;;;25.00;60.30;;;;;;5102774;28;19919;-70
2022/10/31 02:17:36;;;;;;;;;;;24.90;57.20;;;;;;5095211;28;20369;-69
2022/10/31 02:20:10;;;;;;;;;;;24.90;55.50;;;;;;5095524;28;19961;-70
2022/10/31 02:22:39;;;;;;;;;;;24.80;53.60;;;;;;5095158;28;19960;-69
2022/10/31 02:25:16;;;;;;;;;;;24.70;53.70;;;;;;5101129;28;19916;-69
2022/10/31 02:27:48;;;;;;;;;;;24.60;54.20;;;;;;5074650;28;20014;-69
2022/10/31 02:30:16;;;;;;;;;;;24.50;55.00;;;;;;5091651;28;19908;-69
2022/10/31 02:32:49;;;;;;;;;;;24.50;56.20;;;;;;5091627;28;19908;-69
2022/10/31 02:35:24;;;;;;;;;;;24.50;57.30;;;;;;5098001;28;19908;-69
2022/10/31 02:37:54;;;;;;;;;;;24.50;58.30;;;;;;5096061;28;19928;-69
2022/10/31 02:40:31;;;;;;;;;;;24.40;60.20;;;;;;5073639;28;19912;-69
2022/10/31 02:42:58;;;;;;;;;;;24.30;62.20;;;;;;5085009;28;19912;-69
2022/10/31 02:45:44;;;;;;;;;;;24.30;62.50;;;;;;5091657;28;20010;-69
2022/10/31 02:48:12;;;;;;;;;;;24.20;63.10;;;;;;5060422;28;19908;-69
2022/10/31 02:50:40;;;;;;;;;;;24.20;63.90;;;;;;5074150;28;19908;-69
2022/10/31 02:53:07;;;;;;;;;;;24.10;64.40;;;;;;5092123;28;19927;-70
2022/10/31 02:55:33;;;;;;;;;;;24.10;65.50;;;;;;5089611;28;20391;-69
2022/10/31 02:58:01;;;;;;;;;;;24.00;65.90;;;;;;5092377;28;19931;-69
2022/10/31 03:00:29;;;;;;;;;;;24.00;65.90;;;;;;5091824;28;19944;-70
2022/10/31 03:03:07;;;;;;;;;;;23.90;65.60;;;;;;5057548;28;20321;-70
2022/10/31 03:05:52;;;;;;;;;;;23.90;65.90;;;;;;5070679;28;20066;-70
2022/10/31 03:08:23;;;;;;;;;;;23.80;66.40;;;;;;5092233;28;20309;-69
2022/10/31 03:10:53;;;;;;;;;;;23.80;66.90;;;;;;5073777;28;19918;-69
2022/10/31 03:13:26;;;;;;;;;;;23.80;67.30;;;;;;5091764;28;19912;-70
2022/10/31 03:15:54;;;;;;;;;;;23.80;67.80;;;;;;5090529;28;19918;-69
2022/10/31 03:18:52;;;;;;;;;;;23.70;68.80;;;;;;5073874;28;19915;-69
2022/10/31 03:21:39;;;;;;;;;;;23.80;69.40;;;;;;5065642;28;19919;-68
2022/10/31 03:24:06;;;;;;;;;;;23.70;69.10;;;;;;5089814;28;20366;-68
2022/10/31 03:26:32;;;;;;;;;;;23.70;69.30;;;;;;5071717;28;19920;-68
2022/10/31 03:29:00;;;;;;;;;;;23.70;69.50;;;;;;5091103;28;19912;-68
2022/10/31 03:31:29;;;;;;;;;;;23.70;69.50;;;;;;5089896;28;19920;-68
2022/10/31 03:33:56;;;;;;;;;;;23.70;69.60;;;;;;5088550;28;19919;-70
2022/10/31 03:36:23;;;;;;;;;;;23.70;69.50;;;;;;5071973;28;20022;-69
2022/10/31 03:38:49;;;;;;;;;;;23.70;69.30;;;;;;5088925;28;20381;-69
2022/10/31 03:41:17;;;;;;;;;;;23.80;69.20;;;;;;5107598;28;19908;-69
2022/10/31 03:43:46;;;;;;;;;;;23.80;69.70;;;;;;5104764;28;19919;-69
2022/10/31 03:46:13;;;;;;;;;;;23.80;70.10;;;;;;5089752;28;20002;-69
2022/10/31 03:48:39;;;;;;;;;;;23.70;70.10;;;;;;5108097;28;19927;-69
2022/10/31 03:51:06;;;;;;;;;;;23.70;70.30;;;;;;5100158;28;19915;-69
2022/10/31 03:53:35;;;;;;;;;;;23.70;70.30;;;;;;5098469;28;19930;-69
2022/10/31 03:56:03;;;;;;;;;;;23.70;71.00;;;;;;5070982;28;19908;-69
2022/10/31 03:58:32;;;;;;;;;;;23.70;71.80;;;;;;5079184;28;19911;-68
2022/10/31 04:00:58;;;;;;;;;;;23.80;72.90;;;;;;5103993;28;20373;-68
2022/10/31 04:03:31;;;;;;;;;;;23.80;73.20;;;;;;5091923;28;20039;-68
2022/10/31 04:05:59;;;;;;;;;;;23.80;73.70;;;;;;5096929;28;19908;-68
2022/10/31 04:08:28;;;;;;;;;;;23.80;74.50;;;;;;5105491;28;19916;-68
2022/10/31 04:10:54;;;;;;;;;;;23.90;75.10;;;;;;5097271;28;20396;-69
2022/10/31 04:13:22;;;;;;;;;;;23.90;74.00;;;;;;5097978;28;19908;-68
2022/10/31 04:15:49;;;;;;;;;;;24.00;73.00;;;;;;5103819;28;19920;-67
2022/10/31 04:18:16;;;;;;;;;;;24.10;71.40;;;;;;5078157;28;19963;-68
2022/10/31 04:20:42;;;;;;;;;;;24.10;69.40;;;;;;5099728;28;19912;-68
2022/10/31 04:23:14;;;;;;;;;;;24.20;68.30;;;;;;5108789;28;19953;-68
2022/10/31 04:25:41;;;;;;;;;;;24.20;67.30;;;;;;5093419;28;20048;-68
2022/10/31 04:28:07;;;;;;;;;;;24.30;67.30;;;;;;5098570;28;20475;-68
2022/10/31 04:30:34;;;;;;;;;;;24.30;66.80;;;;;;5100932;28;19916;-68
2022/10/31 04:33:00;;;;;;;;;;;24.30;67.30;;;;;;5115286;28;19916;-68
2022/10/31 04:35:27;;;;;;;;;;;24.30;66.60;;;;;;5107771;28;19908;-69
2022/10/31 04:37:54;;;;;;;;;;;24.40;64.20;;;;;;5099710;28;19920;-68
2022/10/31 04:40:20;;;;;;;;;;;24.40;64.60;;;;;;5115281;28;19958;-68
2022/10/31 04:42:47;;;;;;;;;;;24.40;64.90;;;;;;5114957;28;19996;-68
2022/10/31 04:45:13;;;;;;;;;;;24.40;64.90;;;;;;5114833;28;20285;-69
2022/10/31 04:47:40;;;;;;;;;;;24.40;64.90;;;;;;5109121;28;19908;-69
2022/10/31 04:50:07;;;;;;;;;;;24.40;64.80;;;;;;5107342;28;19908;-69
2022/10/31 04:52:38;;;;;;;;;;;24.30;65.30;;;;;;5095453;28;20355;-69
2022/10/31 04:55:05;;;;;;;;;;;24.30;65.20;;;;;;5094923;28;19920;-70
2022/10/31 04:57:32;;;;;;;;;;;24.20;65.70;;;;;;5092646;28;19916;-70
2022/10/31 04:59:58;;;;;;;;;;;24.30;66.00;;;;;;5089925;28;20317;-70
2022/10/31 05:02:25;;;;;;;;;;;24.30;66.40;;;;;;5090998;28;19912;-70
2022/10/31 05:04:51;;;;;;;;;;;24.30;66.60;;;;;;5086822;28;19916;-68
2022/10/31 05:07:18;;;;;;;;;;;24.30;66.40;;;;;;5087022;28;19958;-69
2022/10/31 05:09:44;;;;;;;;;;;24.30;66.40;;;;;;5085771;28;20003;-69
2022/10/31 05:12:11;;;;;;;;;;;24.30;66.40;;;;;;5085579;28;19912;-69
2022/10/31 05:14:38;;;;;;;;;;;24.30;66.10;;;;;;5092565;28;19958;-69
2022/10/31 05:17:04;;;;;;;;;;;24.30;66.10;;;;;;5092508;28;19941;-69
2022/10/31 05:19:31;;;;;;;;;;;24.30;66.00;;;;;;5090561;28;20370;-69
2022/10/31 05:21:57;;;;;;;;;;;24.30;66.30;;;;;;5092170;28;19916;-69
2022/10/31 05:24:24;;;;;;;;;;;24.40;67.00;;;;;;5091387;28;19912;-69
2022/10/31 05:26:51;;;;;;;;;;;24.40;66.60;;;;;;5090894;28;19916;-69
2022/10/31 05:29:17;;;;;;;;;;;24.30;66.20;;;;;;5093364;28;19909;-69
2022/10/31 05:31:44;;;;;;;;;;;24.40;66.60;;;;;;5091215;28;19912;-69
2022/10/31 05:34:10;;;;;;;;;;;24.40;65.60;;;;;;5090373;28;20392;-69
2022/10/31 05:36:37;;;;;;;;;;;24.40;66.30;;;;;;5091021;28;19931;-68
2022/10/31 05:39:03;;;;;;;;;;;24.40;66.60;;;;;;5089101;28;19961;-69
2022/10/31 05:41:30;;;;;;;;;;;24.50;66.60;;;;;;5085698;28;20344;-69
2022/10/31 05:43:57;;;;;;;;;;;24.40;67.10;;;;;;5081184;28;19916;-69
2022/10/31 05:46:23;;;;;;;;;;;24.50;66.90;;;;;;5083872;28;19919;-71
2022/10/31 05:48:50;;;;;;;;;;;24.50;67.00;;;;;;5087618;28;19919;-69
2022/10/31 05:51:16;;;;;;;;;;;24.50;65.90;;;;;;5087451;28;20294;-70
2022/10/31 05:53:43;;;;;;;;;;;24.50;66.00;;;;;;5087014;28;19959;-70
2022/10/31 05:56:10;;;;;;;;;;;24.50;65.90;;;;;;5084004;28;19976;-70
2022/10/31 05:58:36;;;;;;;;;;;24.60;65.90;;;;;;5085343;28;20368;-70
2022/10/31 06:01:03;;;;;;;;;;;24.60;65.80;;;;;;5086128;28;19924;-70
2022/10/31 06:03:29;;;;;;;;;;;24.80;65.90;;;;;;5085264;28;19917;-70
2022/10/31 06:05:56;;;;;;;;;;;24.80;65.50;;;;;;5087348;28;20002;-71
2022/10/31 06:08:23;;;;;;;;;;;24.80;65.30;;;;;;5079807;28;19912;-70
2022/10/31 06:10:49;;;;;;;;;;;24.80;64.90;;;;;;5083495;28;19917;-70
2022/10/31 06:13:16;;;;;;;;;;;24.80;64.60;;;;;;5085077;28;20402;-68
2022/10/31 06:15:42;;;;;;;;;;;24.80;64.50;;;;;;5086544;28;19916;-69
2022/10/31 06:18:09;;;;;;;;;;;24.80;64.20;;;;;;5085009;28;19982;-70
2022/10/31 06:20:36;;;;;;;;;;;24.80;64.00;;;;;;5079169;28;19949;-69
2022/10/31 06:23:03;;;;;;;;;;;24.80;64.20;;;;;;5085034;28;19920;-70
2022/10/31 06:25:29;;;;;;;;;;;24.80;64.10;;;;;;5083717;28;19962;-69
2022/10/31 06:27:56;;;;;;;;;;;24.90;63.00;;;;;;5083161;28;20334;-68
2022/10/31 06:30:22;;;;;;;;;;;24.80;63.30;;;;;;5085400;28;19915;-69
2022/10/31 06:32:49;;;;;;;;;;;24.80;63.20;;;;;;5084618;28;20061;-69
2022/10/31 06:35:16;;;;;;;;;;;24.80;63.60;;;;;;5078907;28;20366;-69
2022/10/31 06:37:42;;;;;;;;;;;24.80;63.90;;;;;;5087662;28;19924;-69
2022/10/31 06:40:09;;;;;;;;;;;24.80;63.60;;;;;;5088499;28;19965;-70
2022/10/31 06:42:36;;;;;;;;;;;24.80;63.40;;;;;;5085685;28;19912;-68
2022/10/31 06:45:02;;;;;;;;;;;24.80;63.70;;;;;;5087741;28;19912;-69
2022/10/31 06:47:29;;;;;;;;;;;24.80;63.90;;;;;;5082520;28;19916;-69
2022/10/31 06:49:56;;;;;;;;;;;24.70;63.80;;;;;;5077402;28;20405;-68
2022/10/31 06:52:23;;;;;;;;;;;24.70;64.10;;;;;;4974341;28;3224796;-68
2022/10/31 06:54:49;;;;;;;;;;;24.70;64.00;;;;;;5083661;28;20049;-68
2022/10/31 06:57:16;;;;;;;;;;;24.70;64.10;;;;;;5083503;28;19932;-69
2022/10/31 06:59:43;;;;;;;;;;;24.70;64.10;;;;;;5086969;28;19919;-69
2022/10/31 07:02:10;;;;;;;;;;;24.70;63.90;;;;;;5087461;28;20263;-69
2022/10/31 07:04:36;;;;;;;;;;;24.60;64.00;;;;;;5105182;28;19916;-69
2022/10/31 07:07:03;;;;;;;;;;;24.70;63.90;;;;;;5095785;28;19912;-70
2022/10/31 07:09:30;;;;;;;;;;;24.60;64.00;;;;;;5081805;28;19915;-70
2022/10/31 07:11:56;;;;;;;;;;;24.70;63.60;;;;;;5087197;28;19916;-69
2022/10/31 07:14:23;;;;;;;;;;;24.60;63.80;;;;;;5076591;28;20401;-70
2022/10/31 07:16:50;;;;;;;;;;;24.60;64.00;;;;;;5088797;28;19935;-69
2022/10/31 07:19:17;;;;;;;;;;;24.60;63.70;;;;;;5076695;28;20280;-69
2022/10/31 07:21:43;;;;;;;;;;;24.60;63.80;;;;;;5083924;28;20382;-70
2022/10/31 07:24:10;;;;;;;;;;;24.60;63.40;;;;;;5084416;28;19912;-70
2022/10/31 07:26:37;;;;;;;;;;;24.60;63.60;;;;;;5080832;28;19919;-70
2022/10/31 07:29:03;;;;;;;;;;;24.50;63.70;;;;;;5083788;28;19923;-70
2022/10/31 07:31:30;;;;;;;;;;;24.60;63.70;;;;;;5083005;28;19920;-70
2022/10/31 07:33:56;;;;;;;;;;;24.60;63.70;;;;;;5090865;28;19916;-69
2022/10/31 07:36:23;;;;;;;;;;;24.50;63.70;;;;;;5084436;28;19920;-69
2022/10/31 07:38:50;;;;;;;;;;;24.50;63.70;;;;;;5089704;28;20375;-69
2022/10/31 07:41:16;;;;;;;;;;;24.50;63.80;;;;;;5093525;28;19916;-70
2022/10/31 07:43:43;;;;;;;;;;;24.60;63.70;;;;;;5106630;28;20357;-70
2022/10/31 07:46:11;;;;;;;;;;;24.60;63.70;;;;;;5092392;28;19936;-70
2022/10/31 07:48:37;;;;;;;;;;;24.60;63.60;;;;;;5103342;28;19925;-73
2022/10/31 09:17:48;;;;;;;;;;;24.30;66.50;;;;;;5124106;27;19942;-73
2022/10/31 09:20:15;;;;;;;;;;;24.30;66.40;;;;;;5124425;27;19916;-73
2022/10/31 09:22:41;;;;;;;;;;;24.30;66.50;;;;;;5132541;27;19919;-73
2022/10/31 09:25:09;;;;;;;;;;;24.30;66.60;;;;;;5132553;27;20265;-72
2022/10/31 09:27:35;;;;;;;;;;;24.30;67.40;;;;;;5132234;27;19914;-72
2022/10/31 09:30:02;;;;;;;;;;;24.30;69.30;;;;;;5129879;27;19954;-73
2022/10/31 09:32:29;;;;;;;;;;;24.20;70.90;;;;;;5129452;27;19922;-72
2022/10/31 09:34:55;;;;;;;;;;;24.00;71.80;;;;;;5120262;27;20350;-72
2022/10/31 09:37:22;;;;;;;;;;;23.90;71.90;;;;;;5144218;27;19959;-72
2022/10/31 09:39:49;;;;;;;;;;;23.80;72.30;;;;;;5151993;27;19918;-71
2022/10/31 09:42:15;;;;;;;;;;;23.80;72.30;;;;;;5140092;27;19957;-71
2022/10/31 09:44:58;;;;;;;;;;;23.70;72.60;;;;;;5152233;27;19908;-70
2022/10/31 09:47:34;;;;;;;;;;;23.70;72.30;;;;;;5153029;27;19915;-71
2022/10/31 09:50:18;;;;;;;;;;;23.70;72.30;;;;;;5151018;27;19946;-70
2022/10/31 09:52:52;;;;;;;;;;;23.70;72.40;;;;;;5131624;27;19955;-72
2022/10/31 09:55:21;;;;;;;;;;;23.70;72.40;;;;;;5149118;27;19907;-72
2022/10/31 09:57:47;;;;;;;;;;;23.70;72.70;;;;;;5131105;27;19967;-71
2022/10/31 10:00:18;;;;;;;;;;;23.60;73.30;;;;;;5130827;27;19915;-72
2022/10/31 10:02:48;;;;;;;;;;;23.50;73.70;;;;;;5152446;27;19997;-71
2022/10/31 10:05:19;;;;;;;;;;;23.50;73.70;;;;;;5152302;27;20373;-71
2022/10/31 10:07:57;;;;;;;;;;;23.40;74.30;;;;;;5134537;27;19993;-72
2022/10/31 10:10:33;;;;;;;;;;;23.30;74.30;;;;;;5143104;27;19915;-71
2022/10/31 10:13:03;;;;;;;;;;;23.30;73.80;;;;;;5134084;27;20037;-70
2022/10/31 10:15:47;;;;;;;;;;;23.30;74.10;;;;;;5115560;27;19918;-70
2022/10/31 10:18:32;;;;;;;;;;;23.30;73.70;;;;;;5115878;27;20001;-71
2022/10/31 10:21:03;;;;;;;;;;;23.30;73.70;;;;;;5124670;27;19911;-71
2022/10/31 10:23:47;;;;;;;;;;;23.30;73.50;;;;;;5115957;27;19958;-70
2022/10/31 10:26:17;;;;;;;;;;;23.30;73.60;;;;;;5121617;27;19954;-71
2022/10/31 10:28:45;;;;;;;;;;;23.30;73.80;;;;;;5130811;27;20006;-71
2022/10/31 10:31:20;;;;;;;;;;;23.30;73.60;;;;;;5109722;27;19918;-71
2022/10/31 10:33:56;;;;;;;;;;;23.30;73.40;;;;;;5113044;27;19911;-71
2022/10/31 10:36:26;;;;;;;;;;;23.30;73.10;;;;;;5117863;27;19922;-71
2022/10/31 10:38:54;;;;;;;;;;;23.30;73.20;;;;;;5154540;27;20042;-71
2022/10/31 10:41:22;;;;;;;;;;;23.40;73.10;;;;;;5154191;27;20436;-71
2022/10/31 10:43:51;;;;;;;;;;;23.40;73.50;;;;;;5154954;27;19911;-71
2022/10/31 10:49:17;;;;;;;;;;;23.30;73.70;;;;;;5148685;27;19964;-71
2022/10/31 10:51:48;;;;;;;;;;;23.30;73.90;;;;;;5134279;27;20368;-71
2022/10/31 10:54:32;;;;;;;;;;;23.30;74.50;;;;;;5135965;27;19907;-71
2022/10/31 10:57:05;;;;;;;;;;;23.30;75.10;;;;;;5147653;27;19919;-71
2022/10/31 10:59:31;;;;;;;;;;;23.30;75.80;;;;;;5154002;27;19998;-70
2022/10/31 11:01:58;;;;;;;;;;;23.20;76.10;;;;;;5134210;27;19946;-71
2022/10/31 11:04:25;;;;;;;;;;;23.10;76.30;;;;;;5154091;27;19960;-71
2022/10/31 11:06:58;;;;;;;;;;;23.00;76.60;;;;;;5140701;27;19908;-71
2022/10/31 11:09:25;;;;;;;;;;;23.00;77.00;;;;;;5154067;27;19911;-71
2022/10/31 11:11:51;;;;;;;;;;;23.00;76.90;;;;;;5153960;27;19917;-71
2022/10/31 11:14:18;;;;;;;;;;;23.00;76.70;;;;;;5135562;27;20015;-71
2022/10/31 11:16:47;;;;;;;;;;;23.00;76.80;;;;;;5122882;27;20018;-71
2022/10/31 11:19:21;;;;;;;;;;;23.00;76.70;;;;;;5134853;27;19919;-71
2022/10/31 11:21:48;;;;;;;;;;;23.00;76.60;;;;;;5135515;27;19939;-71
2022/10/31 11:24:18;;;;;;;;;;;23.00;76.50;;;;;;5148491;27;19911;-71
2022/10/31 11:26:46;;;;;;;;;;;23.00;76.60;;;;;;5142905;27;19911;-71
2022/10/31 11:29:15;;;;;;;;;;;23.00;76.40;;;;;;5153449;27;19907;-71
2022/10/31 11:31:41;;;;;;;;;;;23.00;76.50;;;;;;5152848;27;19914;-71
2022/10/31 11:34:28;;;;;;;;;;;23.00;76.30;;;;;;5153914;27;19912;-71
2022/10/31 11:36:54;;;;;;;;;;;23.10;76.20;;;;;;5148809;27;20285;-71
2022/10/31 11:39:22;;;;;;;;;;;23.00;76.10;;;;;;5135532;27;19915;-71
2022/10/31 11:41:49;;;;;;;;;;;23.00;76.10;;;;;;5134981;27;19907;-71
2022/10/31 11:44:19;;;;;;;;;;;23.00;76.10;;;;;;5123230;28;19931;-71
2022/10/31 11:46:50;;;;;;;;;;;23.00;76.10;;;;;;5120800;27;20379;-71
2022/10/31 11:49:35;;;;;;;;;;;22.90;76.70;;;;;;5153122;27;19929;-71
2022/10/31 11:52:02;;;;;;;;;;;22.90;77.10;;;;;;5153386;27;19904;-71
2022/10/31 11:54:30;;;;;;;;;;;22.80;77.20;;;;;;5135292;27;20006;-71
2022/10/31 11:56:56;;;;;;;;;;;22.80;77.40;;;;;;5123015;27;19918;-71
2022/10/31 11:59:25;;;;;;;;;;;22.80;78.20;;;;;;5153212;27;19918;-71
2022/10/31 12:01:52;;;;;;;;;;;22.70;78.90;;;;;;5134985;27;19907;-71
2022/10/31 12:04:19;;;;;;;;;;;22.70;79.50;;;;;;5153521;27;19994;-71
2022/10/31 12:06:46;;;;;;;;;;;22.60;80.50;;;;;;5121146;27;19923;-71
2022/10/31 12:09:22;;;;;;;;;;;22.50;81.70;;;;;;5135312;27;20387;-70
2022/10/31 12:11:52;;;;;;;;;;;22.40;81.70;;;;;;5153210;27;20264;-71
2022/10/31 12:14:31;;;;;;;;;;;22.40;82.10;;;;;;5153474;27;20031;-71
2022/10/31 12:17:06;;;;;;;;;;;22.30;82.40;;;;;;5124623;27;19920;-70
2022/10/31 12:19:51;;;;;;;;;;;22.30;82.70;;;;;;5138846;27;19919;-71
2022/10/31 12:22:23;;;;;;;;;;;22.30;82.90;;;;;;5156983;27;20348;-71
2022/10/31 12:25:02;;;;;;;;;;;22.20;83.60;;;;;;5138545;27;20246;-71
2022/10/31 12:27:43;;;;;;;;;;;22.20;84.40;;;;;;5135882;27;20330;-71
2022/10/31 12:30:20;;;;;;;;;;;22.00;84.70;;;;;;5138702;27;20132;-70
2022/10/31 12:33:05;;;;;;;;;;;22.00;85.50;;;;;;5138301;27;19915;-71
2022/10/31 12:35:37;;;;;;;;;;;21.90;85.80;;;;;;5149368;27;19923;-71
2022/10/31 12:38:04;;;;;;;;;;;21.80;86.10;;;;;;5150029;27;19937;-71
2022/10/31 12:40:41;;;;;;;;;;;21.80;86.80;;;;;;5156911;27;19911;-71
2022/10/31 12:43:26;;;;;;;;;;;21.80;87.30;;;;;;5138392;27;19910;-71
2022/10/31 12:45:54;;;;;;;;;;;21.70;87.00;;;;;;5150528;27;20422;-70
2022/10/31 12:48:28;;;;;;;;;;;21.60;87.30;;;;;;5127175;27;19918;-71
2022/10/31 12:51:12;;;;;;;;;;;21.60;87.00;;;;;;5117716;27;19972;-71
2022/10/31 12:53:39;;;;;;;;;;;21.60;87.10;;;;;;5135975;27;19908;-72
2022/10/31 12:56:08;;;;;;;;;;;21.70;86.70;;;;;;5134731;27;20246;-71
2022/10/31 12:58:48;;;;;;;;;;;21.70;86.30;;;;;;5135928;27;20434;-71
2022/10/31 13:01:20;;;;;;;;;;;21.70;85.90;;;;;;5117706;27;19960;-71
2022/10/31 13:04:05;;;;;;;;;;;21.70;86.00;;;;;;5117387;27;19939;-71
2022/10/31 13:06:43;;;;;;;;;;;21.80;86.10;;;;;;5127664;27;19980;-71
2022/10/31 13:09:10;;;;;;;;;;;21.70;86.00;;;;;;5117579;27;19911;-71
2022/10/31 13:11:43;;;;;;;;;;;21.70;85.30;;;;;;5117428;27;19917;-71
2022/10/31 13:14:41;;;;;;;;;;;21.80;85.40;;;;;;5117109;27;19960;-71
2022/10/31 13:17:10;;;;;;;;;;;21.80;85.30;;;;;;5076816;27;19927;-70
2022/10/31 13:19:40;;;;;;;;;;;21.80;85.00;;;;;;5112432;27;19915;-71
2022/10/31 13:22:09;;;;;;;;;;;21.80;84.70;;;;;;5117125;27;19933;-71
2022/10/31 13:24:41;;;;;;;;;;;21.80;84.60;;;;;;5134965;27;19998;-71
2022/10/31 13:27:31;;;;;;;;;;;21.80;84.00;;;;;;5133731;27;20004;-70
2022/10/31 13:30:05;;;;;;;;;;;21.80;83.80;;;;;;5096240;27;19922;-71
2022/10/31 13:32:57;;;;;;;;;;;21.90;83.80;;;;;;5107655;27;19918;-71
2022/10/31 13:35:24;;;;;;;;;;;21.90;83.70;;;;;;5083881;27;19934;-71
2022/10/31 13:37:53;;;;;;;;;;;22.00;83.20;;;;;;5143639;27;19916;-71
2022/10/31 13:40:40;;;;;;;;;;;22.00;83.00;;;;;;5137423;27;19915;-71
2022/10/31 13:43:18;;;;;;;;;;;22.00;82.90;;;;;;5137290;27;19903;-71
2022/10/31 13:45:52;;;;;;;;;;;22.00;82.60;;;;;;5137575;27;19907;-71
2022/10/31 13:48:20;;;;;;;;;;;22.00;82.30;;;;;;5119720;27;20499;-71
2022/10/31 13:51:03;;;;;;;;;;;22.00;82.60;;;;;;5155728;27;19911;-71
2022/10/31 13:53:43;;;;;;;;;;;22.00;82.30;;;;;;5136917;27;20357;-71
2022/10/31 13:56:09;;;;;;;;;;;22.10;82.40;;;;;;5155094;27;19959;-71
2022/10/31 13:58:36;;;;;;;;;;;22.10;82.20;;;;;;5144026;27;19911;-71
2022/10/31 14:01:12;;;;;;;;;;;22.10;82.10;;;;;;5136999;27;19949;-71
2022/10/31 14:03:39;;;;;;;;;;;22.20;81.50;;;;;;5155130;27;19914;-71
2022/10/31 14:06:06;;;;;;;;;;;22.20;81.60;;;;;;5138689;27;19912;-70
2022/10/31 14:08:34;;;;;;;;;;;22.20;81.40;;;;;;5112411;27;20421;-70
2022/10/31 14:11:00;;;;;;;;;;;22.20;81.60;;;;;;5125392;27;19907;-71
2022/10/31 14:13:41;;;;;;;;;;;22.20;81.10;;;;;;5136786;27;19911;-71
2022/10/31 14:16:17;;;;;;;;;;;22.20;81.00;;;;;;5137302;27;19960;-71
2022/10/31 14:18:45;;;;;;;;;;;22.30;81.00;;;;;;5122227;27;20292;-71
2022/10/31 14:21:16;;;;;;;;;;;22.30;80.60;;;;;;5133444;27;19958;-71
2022/10/31 14:23:45;;;;;;;;;;;22.30;80.40;;;;;;5136353;27;20006;-71
2022/10/31 14:26:26;;;;;;;;;;;22.30;80.60;;;;;;5154606;27;20279;-71
2022/10/31 14:28:54;;;;;;;;;;;22.30;80.30;;;;;;5154551;27;19914;-71
2022/10/31 14:31:40;;;;;;;;;;;22.30;80.30;;;;;;5137346;27;19923;-71
2022/10/31 14:34:19;;;;;;;;;;;22.30;80.00;;;;;;5128644;27;19911;-71
2022/10/31 14:37:04;;;;;;;;;;;22.40;80.00;;;;;;5154708;27;20322;-71
2022/10/31 14:39:32;;;;;;;;;;;22.40;79.90;;;;;;5154459;27;19915;-71
2022/10/31 14:42:12;;;;;;;;;;;22.40;79.90;;;;;;5126622;27;19972;-71
2022/10/31 14:44:44;;;;;;;;;;;22.40;79.80;;;;;;5135345;27;19911;-71
2022/10/31 14:47:22;;;;;;;;;;;22.40;80.00;;;;;;5141853;27;19930;-71
2022/10/31 14:49:54;;;;;;;;;;;22.40;79.70;;;;;;5135929;27;19906;-71
2022/10/31 14:52:21;;;;;;;;;;;22.40;79.60;;;;;;5120580;27;19964;-71
2022/10/31 14:54:51;;;;;;;;;;;22.40;79.20;;;;;;5143113;27;19943;-70
2022/10/31 14:57:23;;;;;;;;;;;22.50;78.80;;;;;;5154212;27;19916;-71
2022/10/31 14:59:51;;;;;;;;;;;22.40;78.60;;;;;;5135914;27;19907;-71
2022/10/31 15:02:17;;;;;;;;;;;22.40;78.50;;;;;;5141824;27;19956;-71
2022/10/31 15:04:44;;;;;;;;;;;22.40;78.40;;;;;;5154301;27;20001;-71
2022/10/31 15:07:12;;;;;;;;;;;22.40;77.70;;;;;;5135631;27;19913;-71
2022/10/31 15:09:40;;;;;;;;;;;22.40;77.60;;;;;;5154366;27;19947;-71
2022/10/31 15:12:24;;;;;;;;;;;22.40;77.50;;;;;;5121725;27;19933;-70
2022/10/31 15:14:50;;;;;;;;;;;22.40;76.70;;;;;;5135603;27;19911;-71
2022/10/31 15:17:18;;;;;;;;;;;22.40;76.60;;;;;;5153807;27;19925;-71
2022/10/31 15:19:50;;;;;;;;;;;22.50;77.10;;;;;;5153836;27;20029;-71
2022/10/31 15:22:18;;;;;;;;;;;22.40;76.90;;;;;;5151130;27;19919;-71
2022/10/31 15:24:55;;;;;;;;;;;22.50;76.50;;;;;;5154026;27;19914;-71
2022/10/31 15:27:28;;;;;;;;;;;22.40;75.90;;;;;;5128350;27;20365;-71
2022/10/31 15:30:02;;;;;;;;;;;22.40;75.70;;;;;;5115281;27;19926;-71
2022/10/31 15:32:39;;;;;;;;;;;22.50;75.60;;;;;;5129460;27;19922;-71
2022/10/31 15:35:09;;;;;;;;;;;22.40;75.40;;;;;;5133998;27;19908;-71
2022/10/31 15:37:37;;;;;;;;;;;22.40;75.30;;;;;;5153805;27;19919;-71
2022/10/31 15:40:21;;;;;;;;;;;22.50;75.40;;;;;;5152475;27;20360;-73
2022/10/31 15:43:01;;;;;;;;;;;22.50;74.40;;;;;;5131106;27;19930;-71
2022/10/31 15:45:30;;;;;;;;;;;22.50;74.50;;;;;;5112743;28;19951;-71
2022/10/31 15:48:11;;;;;;;;;;;22.50;74.60;;;;;;5118145;28;19903;-72
2022/10/31 15:50:40;;;;;;;;;;;22.50;74.70;;;;;;5147107;27;19912;-71
2022/10/31 15:53:06;;;;;;;;;;;22.50;74.70;;;;;;5154702;27;19907;-71
2022/10/31 15:55:34;;;;;;;;;;;22.40;75.20;;;;;;5138583;27;19907;-72
2022/10/31 15:58:04;;;;;;;;;;;22.40;74.00;;;;;;5118591;27;19923;-71
2022/10/31 16:00:34;;;;;;;;;;;22.40;74.40;;;;;;5142043;27;19945;-72